<?xml version="1.0" encoding="UTF-8" standalone="no" ?>
<gpx xmlns="http://www.topografix.com/GPX/1/1" xmlns:xsi="http://www.w3.org/2001/XMLSchema-instance" xsi:schemaLocation="http://www.topografix.com/GPX/1/1 http://www.topografix.com/GPX/1/1/gpx.xsd" version="1.1" creator="VisuGPX - https://www.visugpx.com">
  <metadata>
    <name>Les Concluses de Lussan- Le Merderis</name>
  </metadata>
  <wpt lat="44.18163" lon="4.40314">
    <ele>234</ele>
    <name><![CDATA[2ème parking sur la route goudronnée]]></name>
  </wpt>
  <wpt lat="44.18369" lon="4.40164">
    <ele>199</ele>
    <name><![CDATA[Point de vue sur l'Aiguillon]]></name>
  </wpt>
  <wpt lat="44.18603" lon="4.40956">
    <ele>182</ele>
    <name><![CDATA[Portail des Concluses]]></name>
  </wpt>
  <wpt lat="44.18725" lon="4.40803">
    <ele>193</ele>
    <name><![CDATA[Passage délicat]]></name>
  </wpt>
  <wpt lat="44.19003" lon="4.39972">
    <ele>241</ele>
    <name><![CDATA[Embranchement, prendre à droite]]></name>
  </wpt>
  <wpt lat="44.19297" lon="4.39434">
    <ele>300</ele>
    <name><![CDATA[Menhir de la Pierre Plantée]]></name>
  </wpt>
  <wpt lat="44.19662" lon="4.39556">
    <ele>284</ele>
    <name><![CDATA[Point de vue sur les Cévennes]]></name>
  </wpt>
  <wpt lat="44.20035" lon="4.39483">
    <ele>214</ele>
    <name><![CDATA[Prendre à gauche]]></name>
  </wpt>
  <wpt lat="44.20147" lon="4.38833">
    <ele>234</ele>
    <name><![CDATA[Sous-bois moussu]]></name>
  </wpt>
  <wpt lat="44.20602" lon="4.38425">
    <ele>268</ele>
    <name><![CDATA[Embranchement "Combe de Ruth" prendre à gauche]]></name>
  </wpt>
  <wpt lat="44.20242" lon="4.37662">
    <ele>303</ele>
    <name><![CDATA[Embranchement "Le Quarton" prendre à gauche]]></name>
  </wpt>
  <wpt lat="44.19213" lon="4.3625">
    <ele>268</ele>
    <name><![CDATA["La Lecque" Proursuivre Direction "Le Portail des ]]></name>
  </wpt>
  <wpt lat="44.1883" lon="4.36653">
    <ele>287</ele>
    <name><![CDATA[Prendre à gauche ]]></name>
  </wpt>
  <wpt lat="44.1885" lon="4.37325">
    <ele>300</ele>
    <name><![CDATA[Intersection prendre à droite]]></name>
  </wpt>
  <wpt lat="44.18571" lon="4.37712">
    <ele>297</ele>
    <name><![CDATA[Intersection prendre à gauche]]></name>
  </wpt>
  <wpt lat="44.18374" lon="4.39019">
    <ele>293</ele>
    <name><![CDATA[ "Le Plan du Boeuf" prendre à gauche ]]></name>
  </wpt>
  <wpt lat="44.18173" lon="4.40314">
    <ele>234</ele>
    <name><![CDATA[Deuxième parking sur la route goudronnée]]></name>
  </wpt>
  <trk>
    <name><![CDATA[Les Concluses de Lussan- Le Merderis]]></name>
    <trkseg>
      <trkpt lat="44.18163" lon="4.40314">
        <ele>234</ele>
        <time>2021-12-22T19:51:47+01:00</time>
      </trkpt>
      <trkpt lat="44.1828" lon="4.40294">
        <ele>236</ele>
        <time>2021-12-22T19:51:52+01:00</time>
      </trkpt>
      <trkpt lat="44.18306" lon="4.40254">
        <ele>228</ele>
        <time>2021-12-22T19:51:57+01:00</time>
      </trkpt>
      <trkpt lat="44.18322" lon="4.40249">
        <ele>229</ele>
        <time>2021-12-22T19:52:02+01:00</time>
      </trkpt>
      <trkpt lat="44.18369" lon="4.40164">
        <ele>199</ele>
        <time>2021-12-22T19:52:07+01:00</time>
      </trkpt>
      <trkpt lat="44.18439" lon="4.4023">
        <ele>208</ele>
        <time>2021-12-22T19:52:12+01:00</time>
      </trkpt>
      <trkpt lat="44.18496" lon="4.40323">
        <ele>197</ele>
        <time>2021-12-22T19:52:17+01:00</time>
      </trkpt>
      <trkpt lat="44.18508" lon="4.40376">
        <ele>205</ele>
        <time>2021-12-22T19:52:22+01:00</time>
      </trkpt>
      <trkpt lat="44.18573" lon="4.40485">
        <ele>189</ele>
        <time>2021-12-22T19:52:27+01:00</time>
      </trkpt>
      <trkpt lat="44.18545" lon="4.40735">
        <ele>196</ele>
        <time>2021-12-22T19:52:32+01:00</time>
      </trkpt>
      <trkpt lat="44.1859" lon="4.40873">
        <ele>174</ele>
        <time>2021-12-22T19:52:37+01:00</time>
      </trkpt>
      <trkpt lat="44.1861" lon="4.40831">
        <ele>165</ele>
        <time>2021-12-22T19:52:42+01:00</time>
      </trkpt>
      <trkpt lat="44.18635" lon="4.40874">
        <ele>166</ele>
        <time>2021-12-22T19:52:47+01:00</time>
      </trkpt>
      <trkpt lat="44.18609" lon="4.40907">
        <ele>175</ele>
        <time>2021-12-22T19:52:52+01:00</time>
      </trkpt>
      <trkpt lat="44.18603" lon="4.40956">
        <ele>182</ele>
        <time>2021-12-22T19:52:57+01:00</time>
      </trkpt>
      <trkpt lat="44.18624" lon="4.4096">
        <ele>180</ele>
        <time>2021-12-22T19:53:02+01:00</time>
      </trkpt>
      <trkpt lat="44.18648" lon="4.40922">
        <ele>170</ele>
        <time>2021-12-22T19:53:07+01:00</time>
      </trkpt>
      <trkpt lat="44.18672" lon="4.40887">
        <ele>164</ele>
        <time>2021-12-22T19:53:12+01:00</time>
      </trkpt>
      <trkpt lat="44.18691" lon="4.40839">
        <ele>168</ele>
        <time>2021-12-22T19:53:17+01:00</time>
      </trkpt>
      <trkpt lat="44.18725" lon="4.40803">
        <ele>193</ele>
        <time>2021-12-22T19:53:22+01:00</time>
      </trkpt>
      <trkpt lat="44.1877" lon="4.40849">
        <ele>199</ele>
        <time>2021-12-22T19:53:27+01:00</time>
      </trkpt>
      <trkpt lat="44.18832" lon="4.40837">
        <ele>213</ele>
        <time>2021-12-22T19:53:32+01:00</time>
      </trkpt>
      <trkpt lat="44.18849" lon="4.40773">
        <ele>224</ele>
        <time>2021-12-22T19:53:37+01:00</time>
      </trkpt>
      <trkpt lat="44.18868" lon="4.40738">
        <ele>228</ele>
        <time>2021-12-22T19:53:42+01:00</time>
      </trkpt>
      <trkpt lat="44.18894" lon="4.4072">
        <ele>229</ele>
        <time>2021-12-22T19:53:47+01:00</time>
      </trkpt>
      <trkpt lat="44.18884" lon="4.40664">
        <ele>225</ele>
        <time>2021-12-22T19:53:52+01:00</time>
      </trkpt>
      <trkpt lat="44.18927" lon="4.40596">
        <ele>222</ele>
        <time>2021-12-22T19:53:57+01:00</time>
      </trkpt>
      <trkpt lat="44.18903" lon="4.40528">
        <ele>225</ele>
        <time>2021-12-22T19:54:02+01:00</time>
      </trkpt>
      <trkpt lat="44.18908" lon="4.40501">
        <ele>225</ele>
        <time>2021-12-22T19:54:07+01:00</time>
      </trkpt>
      <trkpt lat="44.1893" lon="4.40458">
        <ele>227</ele>
        <time>2021-12-22T19:54:12+01:00</time>
      </trkpt>
      <trkpt lat="44.18917" lon="4.40402">
        <ele>229</ele>
        <time>2021-12-22T19:54:17+01:00</time>
      </trkpt>
      <trkpt lat="44.18947" lon="4.40297">
        <ele>239</ele>
        <time>2021-12-22T19:54:22+01:00</time>
      </trkpt>
      <trkpt lat="44.18956" lon="4.40169">
        <ele>241</ele>
        <time>2021-12-22T19:54:27+01:00</time>
      </trkpt>
      <trkpt lat="44.18998" lon="4.40131">
        <ele>240</ele>
        <time>2021-12-22T19:54:32+01:00</time>
      </trkpt>
      <trkpt lat="44.1899" lon="4.40061">
        <ele>242</ele>
        <time>2021-12-22T19:54:37+01:00</time>
      </trkpt>
      <trkpt lat="44.19003" lon="4.39972">
        <ele>241</ele>
        <time>2021-12-22T19:54:42+01:00</time>
      </trkpt>
      <trkpt lat="44.1901" lon="4.39927">
        <ele>243</ele>
        <time>2021-12-22T19:54:47+01:00</time>
      </trkpt>
      <trkpt lat="44.19033" lon="4.39876">
        <ele>249</ele>
        <time>2021-12-22T19:54:52+01:00</time>
      </trkpt>
      <trkpt lat="44.19083" lon="4.39806">
        <ele>254</ele>
        <time>2021-12-22T19:54:57+01:00</time>
      </trkpt>
      <trkpt lat="44.19" lon="4.39692">
        <ele>254</ele>
        <time>2021-12-22T19:55:02+01:00</time>
      </trkpt>
      <trkpt lat="44.19048" lon="4.39672">
        <ele>259</ele>
        <time>2021-12-22T19:55:07+01:00</time>
      </trkpt>
      <trkpt lat="44.19045" lon="4.39609">
        <ele>261</ele>
        <time>2021-12-22T19:55:12+01:00</time>
      </trkpt>
      <trkpt lat="44.1903" lon="4.39556">
        <ele>262</ele>
        <time>2021-12-22T19:55:17+01:00</time>
      </trkpt>
      <trkpt lat="44.19027" lon="4.39509">
        <ele>265</ele>
        <time>2021-12-22T19:55:22+01:00</time>
      </trkpt>
      <trkpt lat="44.1912" lon="4.394">
        <ele>286</ele>
        <time>2021-12-22T19:55:27+01:00</time>
      </trkpt>
      <trkpt lat="44.19142" lon="4.39392">
        <ele>290</ele>
        <time>2021-12-22T19:55:32+01:00</time>
      </trkpt>
      <trkpt lat="44.19183" lon="4.394">
        <ele>295</ele>
        <time>2021-12-22T19:55:37+01:00</time>
      </trkpt>
      <trkpt lat="44.19206" lon="4.3941">
        <ele>297</ele>
        <time>2021-12-22T19:55:42+01:00</time>
      </trkpt>
      <trkpt lat="44.19235" lon="4.39407">
        <ele>298</ele>
        <time>2021-12-22T19:55:47+01:00</time>
      </trkpt>
      <trkpt lat="44.1927" lon="4.39425">
        <ele>299</ele>
        <time>2021-12-22T19:55:52+01:00</time>
      </trkpt>
      <trkpt lat="44.19297" lon="4.39434">
        <ele>300</ele>
        <time>2021-12-22T19:55:57+01:00</time>
      </trkpt>
      <trkpt lat="44.19355" lon="4.3946">
        <ele>301</ele>
        <time>2021-12-22T19:56:02+01:00</time>
      </trkpt>
      <trkpt lat="44.19388" lon="4.3954">
        <ele>303</ele>
        <time>2021-12-22T19:56:07+01:00</time>
      </trkpt>
      <trkpt lat="44.1942" lon="4.39565">
        <ele>303</ele>
        <time>2021-12-22T19:56:12+01:00</time>
      </trkpt>
      <trkpt lat="44.19483" lon="4.39567">
        <ele>300</ele>
        <time>2021-12-22T19:56:17+01:00</time>
      </trkpt>
      <trkpt lat="44.19514" lon="4.39535">
        <ele>297</ele>
        <time>2021-12-22T19:56:22+01:00</time>
      </trkpt>
      <trkpt lat="44.19553" lon="4.39526">
        <ele>295</ele>
        <time>2021-12-22T19:56:27+01:00</time>
      </trkpt>
      <trkpt lat="44.19571" lon="4.39523">
        <ele>295</ele>
        <time>2021-12-22T19:56:32+01:00</time>
      </trkpt>
      <trkpt lat="44.19592" lon="4.39528">
        <ele>293</ele>
        <time>2021-12-22T19:56:37+01:00</time>
      </trkpt>
      <trkpt lat="44.19612" lon="4.39526">
        <ele>290</ele>
        <time>2021-12-22T19:56:42+01:00</time>
      </trkpt>
      <trkpt lat="44.19662" lon="4.39556">
        <ele>284</ele>
        <time>2021-12-22T19:56:47+01:00</time>
      </trkpt>
      <trkpt lat="44.19724" lon="4.39586">
        <ele>281</ele>
        <time>2021-12-22T19:56:52+01:00</time>
      </trkpt>
      <trkpt lat="44.19754" lon="4.39584">
        <ele>279</ele>
        <time>2021-12-22T19:56:57+01:00</time>
      </trkpt>
      <trkpt lat="44.19788" lon="4.39595">
        <ele>275</ele>
        <time>2021-12-22T19:57:02+01:00</time>
      </trkpt>
      <trkpt lat="44.19809" lon="4.39584">
        <ele>274</ele>
        <time>2021-12-22T19:57:07+01:00</time>
      </trkpt>
      <trkpt lat="44.19842" lon="4.39607">
        <ele>267</ele>
        <time>2021-12-22T19:57:12+01:00</time>
      </trkpt>
      <trkpt lat="44.19887" lon="4.39604">
        <ele>251</ele>
        <time>2021-12-22T19:57:17+01:00</time>
      </trkpt>
      <trkpt lat="44.19913" lon="4.3957">
        <ele>243</ele>
        <time>2021-12-22T19:57:22+01:00</time>
      </trkpt>
      <trkpt lat="44.19953" lon="4.39528">
        <ele>227</ele>
        <time>2021-12-22T19:57:27+01:00</time>
      </trkpt>
      <trkpt lat="44.20018" lon="4.39468">
        <ele>211</ele>
        <time>2021-12-22T19:57:32+01:00</time>
      </trkpt>
      <trkpt lat="44.20035" lon="4.39483">
        <ele>214</ele>
        <time>2021-12-22T19:57:37+01:00</time>
      </trkpt>
      <trkpt lat="44.20063" lon="4.39404">
        <ele>218</ele>
        <time>2021-12-22T19:57:42+01:00</time>
      </trkpt>
      <trkpt lat="44.2006" lon="4.39359">
        <ele>223</ele>
        <time>2021-12-22T19:57:47+01:00</time>
      </trkpt>
      <trkpt lat="44.20056" lon="4.39317">
        <ele>227</ele>
        <time>2021-12-22T19:57:52+01:00</time>
      </trkpt>
      <trkpt lat="44.2007" lon="4.3927">
        <ele>231</ele>
        <time>2021-12-22T19:57:57+01:00</time>
      </trkpt>
      <trkpt lat="44.20062" lon="4.3921">
        <ele>231</ele>
        <time>2021-12-22T19:58:02+01:00</time>
      </trkpt>
      <trkpt lat="44.20057" lon="4.39144">
        <ele>231</ele>
        <time>2021-12-22T19:58:07+01:00</time>
      </trkpt>
      <trkpt lat="44.20067" lon="4.39108">
        <ele>229</ele>
        <time>2021-12-22T19:58:12+01:00</time>
      </trkpt>
      <trkpt lat="44.20133" lon="4.3901">
        <ele>236</ele>
        <time>2021-12-22T19:58:17+01:00</time>
      </trkpt>
      <trkpt lat="44.20151" lon="4.38924">
        <ele>234</ele>
        <time>2021-12-22T19:58:22+01:00</time>
      </trkpt>
      <trkpt lat="44.20147" lon="4.38833">
        <ele>234</ele>
        <time>2021-12-22T19:58:27+01:00</time>
      </trkpt>
      <trkpt lat="44.2017" lon="4.38802">
        <ele>235</ele>
        <time>2021-12-22T19:58:32+01:00</time>
      </trkpt>
      <trkpt lat="44.20223" lon="4.38794">
        <ele>240</ele>
        <time>2021-12-22T19:58:37+01:00</time>
      </trkpt>
      <trkpt lat="44.2026" lon="4.38808">
        <ele>240</ele>
        <time>2021-12-22T19:58:42+01:00</time>
      </trkpt>
      <trkpt lat="44.2026" lon="4.3881">
        <ele>240</ele>
        <time>2021-12-22T19:58:47+01:00</time>
      </trkpt>
      <trkpt lat="44.2029" lon="4.38885">
        <ele>243</ele>
        <time>2021-12-22T19:58:52+01:00</time>
      </trkpt>
      <trkpt lat="44.20343" lon="4.38884">
        <ele>244</ele>
        <time>2021-12-22T19:58:57+01:00</time>
      </trkpt>
      <trkpt lat="44.2035" lon="4.38938">
        <ele>247</ele>
        <time>2021-12-22T19:59:02+01:00</time>
      </trkpt>
      <trkpt lat="44.20369" lon="4.38933">
        <ele>248</ele>
        <time>2021-12-22T19:59:07+01:00</time>
      </trkpt>
      <trkpt lat="44.20385" lon="4.38911">
        <ele>248</ele>
        <time>2021-12-22T19:59:12+01:00</time>
      </trkpt>
      <trkpt lat="44.20397" lon="4.38851">
        <ele>246</ele>
        <time>2021-12-22T19:59:17+01:00</time>
      </trkpt>
      <trkpt lat="44.20395" lon="4.38792">
        <ele>248</ele>
        <time>2021-12-22T19:59:22+01:00</time>
      </trkpt>
      <trkpt lat="44.20412" lon="4.3878">
        <ele>248</ele>
        <time>2021-12-22T19:59:27+01:00</time>
      </trkpt>
      <trkpt lat="44.20433" lon="4.388">
        <ele>249</ele>
        <time>2021-12-22T19:59:32+01:00</time>
      </trkpt>
      <trkpt lat="44.2045" lon="4.388">
        <ele>252</ele>
        <time>2021-12-22T19:59:37+01:00</time>
      </trkpt>
      <trkpt lat="44.20467" lon="4.38793">
        <ele>254</ele>
        <time>2021-12-22T19:59:42+01:00</time>
      </trkpt>
      <trkpt lat="44.20467" lon="4.38744">
        <ele>258</ele>
        <time>2021-12-22T19:59:47+01:00</time>
      </trkpt>
      <trkpt lat="44.2045" lon="4.38739">
        <ele>256</ele>
        <time>2021-12-22T19:59:52+01:00</time>
      </trkpt>
      <trkpt lat="44.20436" lon="4.38728">
        <ele>255</ele>
        <time>2021-12-22T19:59:57+01:00</time>
      </trkpt>
      <trkpt lat="44.20437" lon="4.38706">
        <ele>257</ele>
        <time>2021-12-22T20:00:02+01:00</time>
      </trkpt>
      <trkpt lat="44.20447" lon="4.38677">
        <ele>261</ele>
        <time>2021-12-22T20:00:07+01:00</time>
      </trkpt>
      <trkpt lat="44.20449" lon="4.38649">
        <ele>263</ele>
        <time>2021-12-22T20:00:12+01:00</time>
      </trkpt>
      <trkpt lat="44.2047" lon="4.38623">
        <ele>265</ele>
        <time>2021-12-22T20:00:17+01:00</time>
      </trkpt>
      <trkpt lat="44.20453" lon="4.38585">
        <ele>265</ele>
        <time>2021-12-22T20:00:22+01:00</time>
      </trkpt>
      <trkpt lat="44.20443" lon="4.38557">
        <ele>265</ele>
        <time>2021-12-22T20:00:27+01:00</time>
      </trkpt>
      <trkpt lat="44.20449" lon="4.38534">
        <ele>265</ele>
        <time>2021-12-22T20:00:32+01:00</time>
      </trkpt>
      <trkpt lat="44.20476" lon="4.38525">
        <ele>263</ele>
        <time>2021-12-22T20:00:37+01:00</time>
      </trkpt>
      <trkpt lat="44.20503" lon="4.38502">
        <ele>260</ele>
        <time>2021-12-22T20:00:42+01:00</time>
      </trkpt>
      <trkpt lat="44.20536" lon="4.38463">
        <ele>265</ele>
        <time>2021-12-22T20:00:47+01:00</time>
      </trkpt>
      <trkpt lat="44.20576" lon="4.38436">
        <ele>268</ele>
        <time>2021-12-22T20:00:52+01:00</time>
      </trkpt>
      <trkpt lat="44.20602" lon="4.38425">
        <ele>268</ele>
        <time>2021-12-22T20:00:57+01:00</time>
      </trkpt>
      <trkpt lat="44.20596" lon="4.38408">
        <ele>269</ele>
        <time>2021-12-22T20:01:02+01:00</time>
      </trkpt>
      <trkpt lat="44.20611" lon="4.38392">
        <ele>270</ele>
        <time>2021-12-22T20:01:07+01:00</time>
      </trkpt>
      <trkpt lat="44.20604" lon="4.38385">
        <ele>272</ele>
        <time>2021-12-22T20:01:12+01:00</time>
      </trkpt>
      <trkpt lat="44.20609" lon="4.38361">
        <ele>274</ele>
        <time>2021-12-22T20:01:17+01:00</time>
      </trkpt>
      <trkpt lat="44.20606" lon="4.3832">
        <ele>280</ele>
        <time>2021-12-22T20:01:22+01:00</time>
      </trkpt>
      <trkpt lat="44.20559" lon="4.38301">
        <ele>286</ele>
        <time>2021-12-22T20:01:27+01:00</time>
      </trkpt>
      <trkpt lat="44.20534" lon="4.38237">
        <ele>294</ele>
        <time>2021-12-22T20:01:32+01:00</time>
      </trkpt>
      <trkpt lat="44.20505" lon="4.38197">
        <ele>299</ele>
        <time>2021-12-22T20:01:37+01:00</time>
      </trkpt>
      <trkpt lat="44.20484" lon="4.38118">
        <ele>301</ele>
        <time>2021-12-22T20:01:42+01:00</time>
      </trkpt>
      <trkpt lat="44.20484" lon="4.38079">
        <ele>302</ele>
        <time>2021-12-22T20:01:47+01:00</time>
      </trkpt>
      <trkpt lat="44.20441" lon="4.38057">
        <ele>301</ele>
        <time>2021-12-22T20:01:52+01:00</time>
      </trkpt>
      <trkpt lat="44.204" lon="4.38044">
        <ele>301</ele>
        <time>2021-12-22T20:01:57+01:00</time>
      </trkpt>
      <trkpt lat="44.20345" lon="4.38017">
        <ele>301</ele>
        <time>2021-12-22T20:02:02+01:00</time>
      </trkpt>
      <trkpt lat="44.20347" lon="4.37992">
        <ele>302</ele>
        <time>2021-12-22T20:02:07+01:00</time>
      </trkpt>
      <trkpt lat="44.20293" lon="4.37926">
        <ele>301</ele>
        <time>2021-12-22T20:02:12+01:00</time>
      </trkpt>
      <trkpt lat="44.20265" lon="4.37913">
        <ele>301</ele>
        <time>2021-12-22T20:02:17+01:00</time>
      </trkpt>
      <trkpt lat="44.20219" lon="4.37864">
        <ele>301</ele>
        <time>2021-12-22T20:02:22+01:00</time>
      </trkpt>
      <trkpt lat="44.20227" lon="4.37826">
        <ele>302</ele>
        <time>2021-12-22T20:02:27+01:00</time>
      </trkpt>
      <trkpt lat="44.20224" lon="4.37777">
        <ele>302</ele>
        <time>2021-12-22T20:02:32+01:00</time>
      </trkpt>
      <trkpt lat="44.20246" lon="4.37749">
        <ele>303</ele>
        <time>2021-12-22T20:02:37+01:00</time>
      </trkpt>
      <trkpt lat="44.20239" lon="4.37709">
        <ele>303</ele>
        <time>2021-12-22T20:02:42+01:00</time>
      </trkpt>
      <trkpt lat="44.20242" lon="4.37662">
        <ele>303</ele>
        <time>2021-12-22T20:02:47+01:00</time>
      </trkpt>
      <trkpt lat="44.20203" lon="4.37615">
        <ele>303</ele>
        <time>2021-12-22T20:02:52+01:00</time>
      </trkpt>
      <trkpt lat="44.20113" lon="4.37521">
        <ele>303</ele>
        <time>2021-12-22T20:02:57+01:00</time>
      </trkpt>
      <trkpt lat="44.20092" lon="4.37501">
        <ele>304</ele>
        <time>2021-12-22T20:03:02+01:00</time>
      </trkpt>
      <trkpt lat="44.2007" lon="4.3743">
        <ele>301</ele>
        <time>2021-12-22T20:03:07+01:00</time>
      </trkpt>
      <trkpt lat="44.20044" lon="4.37366">
        <ele>297</ele>
        <time>2021-12-22T20:03:12+01:00</time>
      </trkpt>
      <trkpt lat="44.2002" lon="4.3724">
        <ele>296</ele>
        <time>2021-12-22T20:03:17+01:00</time>
      </trkpt>
      <trkpt lat="44.2001" lon="4.37197">
        <ele>297</ele>
        <time>2021-12-22T20:03:22+01:00</time>
      </trkpt>
      <trkpt lat="44.19984" lon="4.37169">
        <ele>298</ele>
        <time>2021-12-22T20:03:27+01:00</time>
      </trkpt>
      <trkpt lat="44.19957" lon="4.37122">
        <ele>300</ele>
        <time>2021-12-22T20:03:32+01:00</time>
      </trkpt>
      <trkpt lat="44.19947" lon="4.3706">
        <ele>302</ele>
        <time>2021-12-22T20:03:37+01:00</time>
      </trkpt>
      <trkpt lat="44.19911" lon="4.3696">
        <ele>303</ele>
        <time>2021-12-22T20:03:42+01:00</time>
      </trkpt>
      <trkpt lat="44.19847" lon="4.36869">
        <ele>300</ele>
        <time>2021-12-22T20:03:47+01:00</time>
      </trkpt>
      <trkpt lat="44.1979" lon="4.36805">
        <ele>302</ele>
        <time>2021-12-22T20:03:52+01:00</time>
      </trkpt>
      <trkpt lat="44.1976" lon="4.36738">
        <ele>304</ele>
        <time>2021-12-22T20:03:57+01:00</time>
      </trkpt>
      <trkpt lat="44.19739" lon="4.36729">
        <ele>304</ele>
        <time>2021-12-22T20:04:02+01:00</time>
      </trkpt>
      <trkpt lat="44.19664" lon="4.36619">
        <ele>305</ele>
        <time>2021-12-22T20:04:07+01:00</time>
      </trkpt>
      <trkpt lat="44.19648" lon="4.36621">
        <ele>304</ele>
        <time>2021-12-22T20:04:12+01:00</time>
      </trkpt>
      <trkpt lat="44.19654" lon="4.36569">
        <ele>304</ele>
        <time>2021-12-22T20:04:17+01:00</time>
      </trkpt>
      <trkpt lat="44.19619" lon="4.3645">
        <ele>305</ele>
        <time>2021-12-22T20:04:22+01:00</time>
      </trkpt>
      <trkpt lat="44.19611" lon="4.36393">
        <ele>304</ele>
        <time>2021-12-22T20:04:27+01:00</time>
      </trkpt>
      <trkpt lat="44.19593" lon="4.36327">
        <ele>303</ele>
        <time>2021-12-22T20:04:32+01:00</time>
      </trkpt>
      <trkpt lat="44.19594" lon="4.36236">
        <ele>298</ele>
        <time>2021-12-22T20:04:37+01:00</time>
      </trkpt>
      <trkpt lat="44.19577" lon="4.36201">
        <ele>297</ele>
        <time>2021-12-22T20:04:42+01:00</time>
      </trkpt>
      <trkpt lat="44.19565" lon="4.36165">
        <ele>295</ele>
        <time>2021-12-22T20:04:47+01:00</time>
      </trkpt>
      <trkpt lat="44.19529" lon="4.36142">
        <ele>293</ele>
        <time>2021-12-22T20:04:52+01:00</time>
      </trkpt>
      <trkpt lat="44.19516" lon="4.36148">
        <ele>294</ele>
        <time>2021-12-22T20:04:57+01:00</time>
      </trkpt>
      <trkpt lat="44.195" lon="4.36149">
        <ele>295</ele>
        <time>2021-12-22T20:05:02+01:00</time>
      </trkpt>
      <trkpt lat="44.19427" lon="4.36137">
        <ele>284</ele>
        <time>2021-12-22T20:05:07+01:00</time>
      </trkpt>
      <trkpt lat="44.19391" lon="4.36148">
        <ele>282</ele>
        <time>2021-12-22T20:05:12+01:00</time>
      </trkpt>
      <trkpt lat="44.19316" lon="4.36163">
        <ele>276</ele>
        <time>2021-12-22T20:05:17+01:00</time>
      </trkpt>
      <trkpt lat="44.19295" lon="4.36145">
        <ele>270</ele>
        <time>2021-12-22T20:05:22+01:00</time>
      </trkpt>
      <trkpt lat="44.1928" lon="4.36176">
        <ele>272</ele>
        <time>2021-12-22T20:05:27+01:00</time>
      </trkpt>
      <trkpt lat="44.19258" lon="4.36185">
        <ele>269</ele>
        <time>2021-12-22T20:05:32+01:00</time>
      </trkpt>
      <trkpt lat="44.19242" lon="4.3621">
        <ele>269</ele>
        <time>2021-12-22T20:05:37+01:00</time>
      </trkpt>
      <trkpt lat="44.19223" lon="4.36224">
        <ele>268</ele>
        <time>2021-12-22T20:05:42+01:00</time>
      </trkpt>
      <trkpt lat="44.19213" lon="4.3625">
        <ele>268</ele>
        <time>2021-12-22T20:05:47+01:00</time>
      </trkpt>
      <trkpt lat="44.1919" lon="4.36277">
        <ele>267</ele>
        <time>2021-12-22T20:05:52+01:00</time>
      </trkpt>
      <trkpt lat="44.19161" lon="4.36317">
        <ele>265</ele>
        <time>2021-12-22T20:05:57+01:00</time>
      </trkpt>
      <trkpt lat="44.19112" lon="4.3637">
        <ele>261</ele>
        <time>2021-12-22T20:06:02+01:00</time>
      </trkpt>
      <trkpt lat="44.19096" lon="4.36418">
        <ele>261</ele>
        <time>2021-12-22T20:06:07+01:00</time>
      </trkpt>
      <trkpt lat="44.19081" lon="4.36452">
        <ele>260</ele>
        <time>2021-12-22T20:06:12+01:00</time>
      </trkpt>
      <trkpt lat="44.19051" lon="4.36429">
        <ele>258</ele>
        <time>2021-12-22T20:06:17+01:00</time>
      </trkpt>
      <trkpt lat="44.19025" lon="4.3644">
        <ele>257</ele>
        <time>2021-12-22T20:06:22+01:00</time>
      </trkpt>
      <trkpt lat="44.18966" lon="4.36475">
        <ele>261</ele>
        <time>2021-12-22T20:06:27+01:00</time>
      </trkpt>
      <trkpt lat="44.18911" lon="4.36495">
        <ele>267</ele>
        <time>2021-12-22T20:06:32+01:00</time>
      </trkpt>
      <trkpt lat="44.18868" lon="4.36544">
        <ele>278</ele>
        <time>2021-12-22T20:06:37+01:00</time>
      </trkpt>
      <trkpt lat="44.1883" lon="4.36653">
        <ele>287</ele>
        <time>2021-12-22T20:06:42+01:00</time>
      </trkpt>
      <trkpt lat="44.18889" lon="4.36659">
        <ele>288</ele>
        <time>2021-12-22T20:06:47+01:00</time>
      </trkpt>
      <trkpt lat="44.18908" lon="4.36673">
        <ele>289</ele>
        <time>2021-12-22T20:06:52+01:00</time>
      </trkpt>
      <trkpt lat="44.18922" lon="4.3675">
        <ele>292</ele>
        <time>2021-12-22T20:06:57+01:00</time>
      </trkpt>
      <trkpt lat="44.18911" lon="4.36834">
        <ele>296</ele>
        <time>2021-12-22T20:07:02+01:00</time>
      </trkpt>
      <trkpt lat="44.1893" lon="4.36928">
        <ele>298</ele>
        <time>2021-12-22T20:07:07+01:00</time>
      </trkpt>
      <trkpt lat="44.18917" lon="4.37016">
        <ele>300</ele>
        <time>2021-12-22T20:07:12+01:00</time>
      </trkpt>
      <trkpt lat="44.18926" lon="4.37082">
        <ele>299</ele>
        <time>2021-12-22T20:07:17+01:00</time>
      </trkpt>
      <trkpt lat="44.1892" lon="4.37173">
        <ele>298</ele>
        <time>2021-12-22T20:07:22+01:00</time>
      </trkpt>
      <trkpt lat="44.18905" lon="4.3725">
        <ele>299</ele>
        <time>2021-12-22T20:07:27+01:00</time>
      </trkpt>
      <trkpt lat="44.1885" lon="4.37325">
        <ele>300</ele>
        <time>2021-12-22T20:07:32+01:00</time>
      </trkpt>
      <trkpt lat="44.18808" lon="4.37332">
        <ele>300</ele>
        <time>2021-12-22T20:07:37+01:00</time>
      </trkpt>
      <trkpt lat="44.18763" lon="4.37372">
        <ele>301</ele>
        <time>2021-12-22T20:07:42+01:00</time>
      </trkpt>
      <trkpt lat="44.18722" lon="4.37406">
        <ele>300</ele>
        <time>2021-12-22T20:07:47+01:00</time>
      </trkpt>
      <trkpt lat="44.18726" lon="4.37464">
        <ele>301</ele>
        <time>2021-12-22T20:07:52+01:00</time>
      </trkpt>
      <trkpt lat="44.18673" lon="4.37579">
        <ele>300</ele>
        <time>2021-12-22T20:07:57+01:00</time>
      </trkpt>
      <trkpt lat="44.18631" lon="4.37604">
        <ele>299</ele>
        <time>2021-12-22T20:08:02+01:00</time>
      </trkpt>
      <trkpt lat="44.18606" lon="4.37647">
        <ele>298</ele>
        <time>2021-12-22T20:08:07+01:00</time>
      </trkpt>
      <trkpt lat="44.18571" lon="4.37712">
        <ele>297</ele>
        <time>2021-12-22T20:08:12+01:00</time>
      </trkpt>
      <trkpt lat="44.186" lon="4.37732">
        <ele>297</ele>
        <time>2021-12-22T20:08:17+01:00</time>
      </trkpt>
      <trkpt lat="44.1863" lon="4.37766">
        <ele>298</ele>
        <time>2021-12-22T20:08:22+01:00</time>
      </trkpt>
      <trkpt lat="44.18645" lon="4.37845">
        <ele>299</ele>
        <time>2021-12-22T20:08:27+01:00</time>
      </trkpt>
      <trkpt lat="44.18658" lon="4.37876">
        <ele>300</ele>
        <time>2021-12-22T20:08:32+01:00</time>
      </trkpt>
      <trkpt lat="44.18659" lon="4.37915">
        <ele>300</ele>
        <time>2021-12-22T20:08:37+01:00</time>
      </trkpt>
      <trkpt lat="44.1866" lon="4.37988">
        <ele>300</ele>
        <time>2021-12-22T20:08:42+01:00</time>
      </trkpt>
      <trkpt lat="44.18663" lon="4.38063">
        <ele>298</ele>
        <time>2021-12-22T20:08:47+01:00</time>
      </trkpt>
      <trkpt lat="44.1867" lon="4.38157">
        <ele>297</ele>
        <time>2021-12-22T20:08:52+01:00</time>
      </trkpt>
      <trkpt lat="44.18698" lon="4.38289">
        <ele>295</ele>
        <time>2021-12-22T20:08:57+01:00</time>
      </trkpt>
      <trkpt lat="44.18679" lon="4.38355">
        <ele>294</ele>
        <time>2021-12-22T20:09:02+01:00</time>
      </trkpt>
      <trkpt lat="44.18651" lon="4.38414">
        <ele>295</ele>
        <time>2021-12-22T20:09:07+01:00</time>
      </trkpt>
      <trkpt lat="44.18632" lon="4.38448">
        <ele>294</ele>
        <time>2021-12-22T20:09:12+01:00</time>
      </trkpt>
      <trkpt lat="44.18611" lon="4.38465">
        <ele>294</ele>
        <time>2021-12-22T20:09:17+01:00</time>
      </trkpt>
      <trkpt lat="44.1854" lon="4.38475">
        <ele>293</ele>
        <time>2021-12-22T20:09:22+01:00</time>
      </trkpt>
      <trkpt lat="44.18457" lon="4.38574">
        <ele>294</ele>
        <time>2021-12-22T20:09:27+01:00</time>
      </trkpt>
      <trkpt lat="44.18473" lon="4.38664">
        <ele>295</ele>
        <time>2021-12-22T20:09:32+01:00</time>
      </trkpt>
      <trkpt lat="44.18469" lon="4.38754">
        <ele>296</ele>
        <time>2021-12-22T20:09:37+01:00</time>
      </trkpt>
      <trkpt lat="44.18404" lon="4.3889">
        <ele>293</ele>
        <time>2021-12-22T20:09:42+01:00</time>
      </trkpt>
      <trkpt lat="44.18381" lon="4.38958">
        <ele>293</ele>
        <time>2021-12-22T20:09:47+01:00</time>
      </trkpt>
      <trkpt lat="44.18374" lon="4.39019">
        <ele>293</ele>
        <time>2021-12-22T20:09:52+01:00</time>
      </trkpt>
      <trkpt lat="44.18431" lon="4.39058">
        <ele>290</ele>
        <time>2021-12-22T20:09:57+01:00</time>
      </trkpt>
      <trkpt lat="44.18463" lon="4.39101">
        <ele>289</ele>
        <time>2021-12-22T20:10:02+01:00</time>
      </trkpt>
      <trkpt lat="44.18476" lon="4.39194">
        <ele>287</ele>
        <time>2021-12-22T20:10:07+01:00</time>
      </trkpt>
      <trkpt lat="44.18536" lon="4.39284">
        <ele>285</ele>
        <time>2021-12-22T20:10:12+01:00</time>
      </trkpt>
      <trkpt lat="44.1856" lon="4.39361">
        <ele>281</ele>
        <time>2021-12-22T20:10:17+01:00</time>
      </trkpt>
      <trkpt lat="44.18576" lon="4.39431">
        <ele>275</ele>
        <time>2021-12-22T20:10:22+01:00</time>
      </trkpt>
      <trkpt lat="44.18589" lon="4.39466">
        <ele>273</ele>
        <time>2021-12-22T20:10:27+01:00</time>
      </trkpt>
      <trkpt lat="44.18617" lon="4.39483">
        <ele>274</ele>
        <time>2021-12-22T20:10:32+01:00</time>
      </trkpt>
      <trkpt lat="44.18621" lon="4.39535">
        <ele>272</ele>
        <time>2021-12-22T20:10:37+01:00</time>
      </trkpt>
      <trkpt lat="44.18651" lon="4.39594">
        <ele>267</ele>
        <time>2021-12-22T20:10:42+01:00</time>
      </trkpt>
      <trkpt lat="44.18691" lon="4.39626">
        <ele>266</ele>
        <time>2021-12-22T20:10:47+01:00</time>
      </trkpt>
      <trkpt lat="44.1877" lon="4.3968">
        <ele>262</ele>
        <time>2021-12-22T20:10:52+01:00</time>
      </trkpt>
      <trkpt lat="44.18791" lon="4.39746">
        <ele>260</ele>
        <time>2021-12-22T20:10:57+01:00</time>
      </trkpt>
      <trkpt lat="44.18803" lon="4.398">
        <ele>257</ele>
        <time>2021-12-22T20:11:02+01:00</time>
      </trkpt>
      <trkpt lat="44.18828" lon="4.39832">
        <ele>253</ele>
        <time>2021-12-22T20:11:07+01:00</time>
      </trkpt>
      <trkpt lat="44.18858" lon="4.39852">
        <ele>254</ele>
        <time>2021-12-22T20:11:12+01:00</time>
      </trkpt>
      <trkpt lat="44.1889" lon="4.39892">
        <ele>253</ele>
        <time>2021-12-22T20:11:17+01:00</time>
      </trkpt>
      <trkpt lat="44.1895" lon="4.39901">
        <ele>247</ele>
        <time>2021-12-22T20:11:22+01:00</time>
      </trkpt>
      <trkpt lat="44.18984" lon="4.39934">
        <ele>242</ele>
        <time>2021-12-22T20:11:27+01:00</time>
      </trkpt>
      <trkpt lat="44.19004" lon="4.3997">
        <ele>241</ele>
        <time>2021-12-22T20:11:32+01:00</time>
      </trkpt>
      <trkpt lat="44.18989" lon="4.40063">
        <ele>242</ele>
        <time>2021-12-22T20:11:37+01:00</time>
      </trkpt>
      <trkpt lat="44.18998" lon="4.40133">
        <ele>240</ele>
        <time>2021-12-22T20:11:42+01:00</time>
      </trkpt>
      <trkpt lat="44.18957" lon="4.40167">
        <ele>241</ele>
        <time>2021-12-22T20:11:47+01:00</time>
      </trkpt>
      <trkpt lat="44.1895" lon="4.40294">
        <ele>239</ele>
        <time>2021-12-22T20:11:52+01:00</time>
      </trkpt>
      <trkpt lat="44.18916" lon="4.40401">
        <ele>229</ele>
        <time>2021-12-22T20:11:57+01:00</time>
      </trkpt>
      <trkpt lat="44.1893" lon="4.40455">
        <ele>227</ele>
        <time>2021-12-22T20:12:02+01:00</time>
      </trkpt>
      <trkpt lat="44.18901" lon="4.40526">
        <ele>225</ele>
        <time>2021-12-22T20:12:07+01:00</time>
      </trkpt>
      <trkpt lat="44.18927" lon="4.40596">
        <ele>223</ele>
        <time>2021-12-22T20:12:12+01:00</time>
      </trkpt>
      <trkpt lat="44.18883" lon="4.40666">
        <ele>225</ele>
        <time>2021-12-22T20:12:17+01:00</time>
      </trkpt>
      <trkpt lat="44.18895" lon="4.40725">
        <ele>229</ele>
        <time>2021-12-22T20:12:22+01:00</time>
      </trkpt>
      <trkpt lat="44.18868" lon="4.40736">
        <ele>228</ele>
        <time>2021-12-22T20:12:27+01:00</time>
      </trkpt>
      <trkpt lat="44.18849" lon="4.40776">
        <ele>223</ele>
        <time>2021-12-22T20:12:32+01:00</time>
      </trkpt>
      <trkpt lat="44.18833" lon="4.40835">
        <ele>213</ele>
        <time>2021-12-22T20:12:37+01:00</time>
      </trkpt>
      <trkpt lat="44.18771" lon="4.4085">
        <ele>199</ele>
        <time>2021-12-22T20:12:42+01:00</time>
      </trkpt>
      <trkpt lat="44.18728" lon="4.40804">
        <ele>194</ele>
        <time>2021-12-22T20:12:47+01:00</time>
      </trkpt>
      <trkpt lat="44.18691" lon="4.4084">
        <ele>168</ele>
        <time>2021-12-22T20:12:52+01:00</time>
      </trkpt>
      <trkpt lat="44.1867" lon="4.4089">
        <ele>164</ele>
        <time>2021-12-22T20:12:57+01:00</time>
      </trkpt>
      <trkpt lat="44.18621" lon="4.40964">
        <ele>181</ele>
        <time>2021-12-22T20:13:02+01:00</time>
      </trkpt>
      <trkpt lat="44.18603" lon="4.40955">
        <ele>182</ele>
        <time>2021-12-22T20:13:07+01:00</time>
      </trkpt>
      <trkpt lat="44.18613" lon="4.40906">
        <ele>175</ele>
        <time>2021-12-22T20:13:12+01:00</time>
      </trkpt>
      <trkpt lat="44.18632" lon="4.40877">
        <ele>167</ele>
        <time>2021-12-22T20:13:17+01:00</time>
      </trkpt>
      <trkpt lat="44.18608" lon="4.40829">
        <ele>166</ele>
        <time>2021-12-22T20:13:22+01:00</time>
      </trkpt>
      <trkpt lat="44.18591" lon="4.40876">
        <ele>174</ele>
        <time>2021-12-22T20:13:27+01:00</time>
      </trkpt>
      <trkpt lat="44.18543" lon="4.40735">
        <ele>198</ele>
        <time>2021-12-22T20:13:32+01:00</time>
      </trkpt>
      <trkpt lat="44.18558" lon="4.40608">
        <ele>195</ele>
        <time>2021-12-22T20:13:37+01:00</time>
      </trkpt>
      <trkpt lat="44.18572" lon="4.40484">
        <ele>189</ele>
        <time>2021-12-22T20:13:42+01:00</time>
      </trkpt>
      <trkpt lat="44.18509" lon="4.40378">
        <ele>205</ele>
        <time>2021-12-22T20:13:47+01:00</time>
      </trkpt>
      <trkpt lat="44.18497" lon="4.40323">
        <ele>197</ele>
        <time>2021-12-22T20:13:52+01:00</time>
      </trkpt>
      <trkpt lat="44.18471" lon="4.4028">
        <ele>203</ele>
        <time>2021-12-22T20:13:57+01:00</time>
      </trkpt>
      <trkpt lat="44.18442" lon="4.40233">
        <ele>208</ele>
        <time>2021-12-22T20:14:02+01:00</time>
      </trkpt>
      <trkpt lat="44.18398" lon="4.40177">
        <ele>199</ele>
        <time>2021-12-22T20:14:07+01:00</time>
      </trkpt>
      <trkpt lat="44.18369" lon="4.40163">
        <ele>199</ele>
        <time>2021-12-22T20:14:12+01:00</time>
      </trkpt>
      <trkpt lat="44.18338" lon="4.40198">
        <ele>214</ele>
        <time>2021-12-22T20:14:17+01:00</time>
      </trkpt>
      <trkpt lat="44.1832" lon="4.40249">
        <ele>229</ele>
        <time>2021-12-22T20:14:22+01:00</time>
      </trkpt>
      <trkpt lat="44.18308" lon="4.40253">
        <ele>228</ele>
        <time>2021-12-22T20:14:27+01:00</time>
      </trkpt>
      <trkpt lat="44.1828" lon="4.40294">
        <ele>236</ele>
        <time>2021-12-22T20:14:32+01:00</time>
      </trkpt>
      <trkpt lat="44.18169" lon="4.40312">
        <ele>234</ele>
        <time>2021-12-22T20:14:37+01:00</time>
      </trkpt>
      <trkpt lat="44.18173" lon="4.40314">
        <ele>234</ele>
        <time>2021-12-22T20:14:42+01:00</time>
      </trkpt>
    </trkseg>
  </trk>
</gpx>